Station: Ngukurr Aws  

  Atmospheric Gas Attenuation - ITU Rec 676-11   ----------------- dB/100km -----------------
Date Time Temp RH % AH g/m3 Dew Point Wind Direction Speed kph Gust kph Barometer mB Rainfall Since 9am 24GHz 47GHz 76GHz 122GHz 134GHz 241GHz
05/09 09:50 29 59 16.95 20.2 6 9 1018.2 0 36.2 34.8 64.6 170.7 184.7 641.6
05/09 09:40 28.4 62 17.24 20.4 4 11 1018.1 0 36.9 35.5 66.3 175.4 190.2 660.7
05/09 09:30 28.3 63 17.42 20.6 6 13 1018.2 0 37.3 35.9 67.2 177.7 193.0 670.5
05/09 09:20 27.6 67 17.83 20.9 4 9 1018.2 0 38.2 36.9 69.6 184.1 200.7 697.2
05/09 09:10 27.5 70 18.52 21.5 4 9 1018.2 0 39.7 38.2 72.8 192.5 211.0 733.2
05/09 09:00 26.9 72 18.43 21.4 6 9 1018.2 0 39.5 38.3 73.0 193.0 211.4 734.3
05/09 08:50 26.2 75 18.46 21.4 6 11 1018.2 0 39.7 38.7 73.8 195.1 213.8 742.7
05/09 08:40 25.6 78 18.57 21.5 7 15 1018.1 0 40.0 39.2 74.9 198.0 217.2 754.3
05/09 08:30 25.7 79 18.91 21.8 6 9 1018 0 40.7 39.7 76.4 201.9 222.0 771.3
05/09 08:20 25.2 81 18.86 21.7 4 7 1017.9 0 40.6 39.9 76.6 202.6 222.7 773.6
05/09 08:10 24.8 81 18.44 21.3 4 7 1017.9 0 39.8 39.3 75.0 198.4 217.5 755.2
05/09 08:00 24.4 85 18.92 21.7 4 7 1017.8 0 40.8 40.4 77.7 205.5 226.0 785.1
05/09 07:50 23.8 88 18.93 21.7 2 6 1017.7 0 40.9 40.7 78.4 207.3 228.0 791.8
05/09 07:40 23.3 93 19.44 22.1 0 0 1017.7 0 42.1 41.9 81.4 215.3 237.7 825.4
05/09 07:30 22.2 94 18.45 21.2 0 0 1017.7 0 40.1 40.5 77.7 205.5 225.3 782.2
05/09 07:20 21.9 94 18.14 20.9 0 0 1017.5 0 39.4 40.1 76.5 202.3 221.3 768.1
05/09 07:10 21.6 95 18.02 20.7 0 0 1017.5 0 39.2 40.0 76.2 201.5 220.3 764.5
05/09 07:00 21.3 96 17.89 20.6 0 0 1017.4 0 38.9 39.9 75.9 200.6 219.1 760.3
05/09 06:50 21 96 17.58 20.3 0 0 1017.2 0 38.3 39.4 74.7 197.4 215.0 746.2
05/09 06:40 20.5 96 17.08 19.8 0 0 1017.1 0 37.3 38.7 72.7 192.2 208.5 723.6
05/09 06:30 20.1 95 16.51 19.3 0 0 1017 0 36.1 37.7 70.4 186.0 200.7 696.3
05/09 06:20 20.1 94 16.34 19.1 0 0 1016.9 0 35.7 37.4 69.6 183.8 198.1 687.0
05/09 06:10 20.1 95 16.51 19.3 0 0 1016.8 0 36.1 37.7 70.4 185.9 200.7 696.2
05/09 06:00 20.3 94 16.53 19.3 0 0 1016.6 0 36.1 37.7 70.3 185.7 200.4 695.3
05/09 05:50 20.6 95 17 19.7 0 0 1016.5 0 37.1 38.4 72.2 190.9 206.9 717.9
05/09 05:40 20.5 94 16.72 19.5 0 0 1016.4 0 36.5 37.9 71.0 187.6 202.8 703.6
05/09 05:30 20.6 95 17 19.8 0 0 1016.3 0 37.1 38.4 72.2 190.8 206.9 717.8
05/09 05:20 20.6 94 16.82 19.6 0 0 1016.2 0 36.7 38.1 71.3 188.5 204.1 708.0
05/09 05:10 20.8 94 17.02 19.8 0 0 1016.1 0 37.1 38.4 72.1 190.6 206.6 716.9
05/09 05:00 20.8 94 17.02 19.8 0 0 1016.1 0 37.1 38.4 72.1 190.6 206.6 716.9
05/09 04:50 20.9 94 17.12 19.9 0 0 1016 0 37.3 38.5 72.5 191.6 207.9 721.4
05/09 04:40 21.1 94 17.32 20.1 0 0 1015.9 0 37.8 38.8 73.2 193.6 210.4 730.3
05/09 04:30 21.2 94 17.42 20.2 0 0 1015.9 0 38.0 38.9 73.6 194.6 211.7 734.8
05/09 04:20 21.4 93 17.43 20.2 0 0 1015.9 0 38.0 38.9 73.5 194.2 211.3 733.3
05/09 04:10 21.7 94 17.93 20.7 0 0 1015.9 0 39.0 39.7 75.6 199.8 218.3 757.7
05/09 04:00 21.9 93 17.94 20.7 0 0 1015.9 0 39.0 39.6 75.4 199.4 217.9 756.2
05/09 03:50 22.2 93 18.26 21 0 2 1015.8 0 39.7 40.1 76.7 202.7 222.0 770.7
05/09 03:40 22.3 94 18.56 21.3 2 4 1015.8 0 40.3 40.6 78.0 206.3 226.5 786.2
05/09 03:30 22.2 94 18.45 21.2 4 6 1015.8 0 40.1 40.4 77.6 205.2 225.0 781.2
05/09 03:20 22.1 93 18.15 20.9 4 4 1015.8 0 39.4 39.9 76.2 201.6 220.6 765.7
05/09 03:10 22.3 93 18.36 21.1 2 4 1015.9 0 39.9 40.2 77.1 203.8 223.3 775.2
05/09 03:00 22.5 92 18.37 21.1 2 4 1015.9 0 39.9 40.2 76.9 203.4 222.9 773.7
05/09 02:50 22.7 92 18.59 21.3 2 6 1015.9 0 40.3 40.5 77.8 205.6 225.7 783.7
05/09 02:40 22.8 92 18.69 21.4 4 6 1015.9 0 40.5 40.6 78.1 206.7 227.0 788.2
05/09 02:30 23 92 18.91 21.6 6 7 1016 0 41.0 41.0 79.0 209.0 229.9 798.3
05/09 02:20 23.1 92 19.02 21.7 4 6 1016 0 41.2 41.1 79.4 210.1 231.3 803.3
05/09 02:10 23.2 92 19.13 21.8 7 13 1016.1 0 41.4 41.3 79.9 211.3 232.8 808.4
05/09 02:00 23.2 92 19.13 21.8 6 9 1016.2 0 41.4 41.3 79.9 211.3 232.8 808.4
05/09 01:50 23.2 91 18.92 21.6 2 6 1016.3 0 41.0 40.9 78.9 208.6 229.5 796.9
05/09 01:40 23.2 91 18.92 21.6 6 7 1016.3 0 41.0 40.9 78.9 208.6 229.5 796.9
05/09 01:30 23.2 91 18.92 21.6 4 6 1016.4 0 41.0 40.9 78.9 208.6 229.5 796.9
05/09 01:20 23.3 90 18.82 21.6 6 7 1016.4 0 40.7 40.7 78.3 207.0 227.6 790.4
05/09 01:10 23.4 90 18.92 21.7 6 9 1016.5 0 40.9 40.8 78.7 208.1 228.9 794.9
05/09 01:00 23.5 89 18.82 21.6 6 9 1016.7 0 40.7 40.6 78.1 206.5 227.1 788.4
05/09 00:50 23.7 89 19.04 21.8 6 9 1016.8 0 41.2 40.9 79.0 208.8 229.9 798.4
05/09 00:40 23.8 88 18.93 21.7 7 11 1016.9 0 40.9 40.6 78.3 207.2 227.9 791.4
05/09 00:30 23.9 88 19.04 21.8 7 13 1016.9 0 41.1 40.8 78.8 208.3 229.3 796.4
05/09 00:20 23.9 87 18.82 21.6 7 13 1017 0 40.7 40.4 77.7 205.5 225.9 784.4
05/09 00:10 24.1 86 18.82 21.6 11 19 1017.1 0 40.6 40.3 77.5 205.0 225.3 782.4
05/09 00:00 24.2 86 18.92 21.7 9 15 1017.1 0 40.8 40.4 77.9 206.0 226.5 786.8
04/09 23:50 24.1 85 18.6 21.4 9 13 1017.2 0 40.2 39.9 76.5 202.2 221.9 770.5
04/09 23:40 24.1 84 18.38 21.2 7 11 1017.2 0 39.7 39.5 75.4 199.4 218.5 758.7
04/09 23:30 24.1 84 18.38 21.2 7 13 1017.2 0 39.7 39.5 75.4 199.4 218.5 758.7
04/09 23:20 24 83 18.06 20.9 6 9 1017.3 0 39.0 38.9 74.0 195.7 213.9 742.6
04/09 23:10 24.2 82 18.04 20.9 7 11 1017.4 0 39.0 38.8 73.7 194.9 213.0 739.6
04/09 23:00 24.4 81 18.03 20.9 9 15 1017.3 0 38.9 38.7 73.5 194.3 212.3 737.1
04/09 22:50 24.5 80 17.9 20.8 9 15 1017.3 0 38.6 38.4 72.8 192.4 210.0 729.3
04/09 22:40 24.6 79 17.78 20.7 11 17 1017.3 0 38.4 38.1 72.1 190.7 207.9 722.0
04/09 22:30 24.7 78 17.65 20.6 9 13 1017.4 0 38.1 37.8 71.4 188.9 205.7 714.3
04/09 22:20 24.7 77 17.43 20.4 7 15 1017.4 0 37.6 37.4 70.4 186.2 202.4 702.8
04/09 22:10 24.8 77 17.53 20.5 9 15 1017.3 0 37.8 37.6 70.8 187.1 203.6 707.0
04/09 22:00 24.7 76 17.2 20.2 7 11 1017.3 0 37.1 37.0 69.4 183.4 199.0 690.9
04/09 21:50 24.7 76 17.2 20.2 7 13 1017.2 0 37.1 37.0 69.4 183.4 198.9 690.8
04/09 21:40 24.7 75 16.98 20 7 11 1017.2 0 36.7 36.6 68.4 180.7 195.7 679.5
04/09 21:30 24.9 74 16.94 19.9 9 13 1017.2 0 36.6 36.4 68.0 179.8 194.6 675.6
04/09 21:20 25.1 74 17.13 20.1 11 15 1017.1 0 37.0 36.7 68.7 181.6 196.8 683.6
04/09 21:10 25.2 73 16.99 20 13 17 1017.1 0 36.7 36.4 68.0 179.6 194.5 675.5
04/09 21:00 25.3 71 16.62 19.7 11 19 1017 0 35.9 35.7 66.2 175.0 188.9 655.8
04/09 20:50 25.4 70 16.48 19.5 11 17 1016.8 0 35.6 35.4 65.5 173.1 186.6 647.8
04/09 20:40 25.5 68 16.1 19.2 9 19 1016.7 0 34.7 34.7 63.8 168.4 180.9 628.0
04/09 20:30 25.5 67 15.86 18.9 7 13 1016.6 0 34.2 34.2 62.7 165.7 177.5 616.1
04/09 20:20 25.7 66 15.8 18.9 11 15 1016.4 0 34.1 34.1 62.3 164.5 176.1 611.5
04/09 20:10 25.8 65 15.65 18.7 11 13 1016.3 0 33.8 33.8 61.6 162.6 173.8 603.3
04/09 20:00 25.9 65 15.74 18.8 11 22 1016.2 0 34.0 33.9 61.9 163.4 174.8 606.9
04/09 19:50 26.1 64 15.67 18.8 15 22 1016 0 33.8 33.7 61.4 162.1 173.3 601.8
04/09 19:40 26.3 64 15.84 18.9 17 24 1015.9 0 34.1 33.9 61.9 163.6 175.3 608.5
04/09 19:30 26.3 64 15.84 18.9 17 26 1015.8 0 34.1 33.9 61.9 163.6 175.2 608.4
04/09 19:20 26.5 63 15.77 18.9 20 30 1015.7 0 34.0 33.7 61.5 162.4 173.8 603.4
04/09 19:10 26.8 61 15.53 18.6 20 32 1015.5 0 33.4 33.1 60.2 159.1 169.8 589.5
04/09 19:00 27 60 15.44 18.6 17 28 1015.3 0 33.2 32.9 59.7 157.6 168.1 583.6
04/09 18:50 27.3 58 15.18 18.3 20 30 1015.1 0 32.7 32.3 58.4 154.1 163.9 569.0
04/09 18:40 27.6 56 14.9 18 20 32 1014.9 0 32.1 31.8 57.0 150.5 159.5 553.6
04/09 18:30 27.9 54 14.61 17.7 17 26 1014.7 0 31.4 31.2 55.6 146.7 155.0 538.0
04/09 18:20 28.3 53 14.65 17.8 17 24 1014.6 0 31.5 31.1 55.5 146.4 154.7 537.1
04/09 18:10 28.6 52 14.62 17.8 19 28 1014.4 0 31.4 30.9 55.1 145.5 153.7 533.6
04/09 18:00 29 50 14.36 17.5 20 28 1014.2 0 30.8 30.4 53.8 142.0 149.5 519.1
04/09 17:50 29.8 47 14.1 17.3 20 28 1014.1 0 30.2 29.7 52.2 137.9 144.7 502.3
04/09 17:40 30.5 45 14.02 17.2 22 33 1013.9 0 30.0 29.3 51.5 135.9 142.4 494.3
04/09 17:30 31.5 43 14.14 17.4 20 28 1013.7 0 30.2 29.2 51.3 135.4 142.0 493.3
04/09 17:20 32.2 40 13.65 16.9 17 26 1013.5 0 29.1 28.2 49.0 129.3 134.8 468.1

Last Refresh: 05-Sep-2026 09:58:19

Bureau of Meteorology